sensor_id;sensor_type;location;lat;lon;timestamp;P1;durP1;ratioP1;P2;durP2;ratioP2
47365;SDS011;33105;47.964;7.982;2023-11-21T00:00:51;2.92;;;0.75;;
47365;SDS011;33105;47.964;7.982;2023-11-21T00:03:53;2.13;;;0.47;;
47365;SDS011;33105;47.964;7.982;2023-11-21T00:06:56;7.55;;;1.15;;
47365;SDS011;33105;47.964;7.982;2023-11-21T00:09:57;5.63;;;0.90;;
47365;SDS011;33105;47.964;7.982;2023-11-21T00:12:58;6.30;;;0.70;;
47365;SDS011;33105;47.964;7.982;2023-11-21T00:15:59;2.92;;;0.52;;
47365;SDS011;33105;47.964;7.982;2023-11-21T00:19:00;17.67;;;1.00;;
47365;SDS011;33105;47.964;7.982;2023-11-21T00:22:02;5.00;;;0.75;;
47365;SDS011;33105;47.964;7.982;2023-11-21T00:25:03;1.30;;;0.70;;
47365;SDS011;33105;47.964;7.982;2023-11-21T00:28:04;1.92;;;0.70;;
47365;SDS011;33105;47.964;7.982;2023-11-21T00:31:06;4.53;;;0.68;;
47365;SDS011;33105;47.964;7.982;2023-11-21T00:34:07;2.20;;;0.45;;
47365;SDS011;33105;47.964;7.982;2023-11-21T00:37:09;2.42;;;0.60;;
47365;SDS011;33105;47.964;7.982;2023-11-21T00:40:10;2.35;;;0.50;;
47365;SDS011;33105;47.964;7.982;2023-11-21T00:43:13;3.08;;;0.60;;
47365;SDS011;33105;47.964;7.982;2023-11-21T00:46:14;3.97;;;0.60;;
47365;SDS011;33105;47.964;7.982;2023-11-21T00:49:15;0.50;;;0.40;;
47365;SDS011;33105;47.964;7.982;2023-11-21T00:52:17;2.40;;;0.40;;
47365;SDS011;33105;47.964;7.982;2023-11-21T00:55:18;2.72;;;0.70;;
47365;SDS011;33105;47.964;7.982;2023-11-21T00:58:19;2.25;;;0.50;;
47365;SDS011;33105;47.964;7.982;2023-11-21T01:01:21;2.33;;;0.32;;
47365;SDS011;33105;47.964;7.982;2023-11-21T01:04:25;1.30;;;0.50;;
47365;SDS011;33105;47.964;7.982;2023-11-21T01:07:26;0.40;;;0.32;;
47365;SDS011;33105;47.964;7.982;2023-11-21T01:10:28;2.58;;;0.52;;
47365;SDS011;33105;47.964;7.982;2023-11-21T01:13:29;2.30;;;0.60;;
47365;SDS011;33105;47.964;7.982;2023-11-21T01:16:30;1.77;;;0.50;;
47365;SDS011;33105;47.964;7.982;2023-11-21T01:19:33;1.38;;;0.40;;
47365;SDS011;33105;47.964;7.982;2023-11-21T01:22:34;1.48;;;0.77;;
47365;SDS011;33105;47.964;7.982;2023-11-21T01:25:36;1.73;;;0.32;;
47365;SDS011;33105;47.964;7.982;2023-11-21T01:28:37;1.10;;;0.10;;
47365;SDS011;33105;47.964;7.982;2023-11-21T01:31:38;0.52;;;0.20;;
47365;SDS011;33105;47.964;7.982;2023-11-21T01:34:40;1.25;;;0.20;;
47365;SDS011;33105;47.964;7.982;2023-11-21T01:37:42;0.88;;;0.20;;
47365;SDS011;33105;47.964;7.982;2023-11-21T01:40:43;0.95;;;0.30;;
47365;SDS011;33105;47.964;7.982;2023-11-21T01:43:44;0.63;;;0.10;;
47365;SDS011;33105;47.964;7.982;2023-11-21T01:46:45;5.68;;;0.30;;
47365;SDS011;33105;47.964;7.982;2023-11-21T01:49:48;0.93;;;0.40;;
47365;SDS011;33105;47.964;7.982;2023-11-21T01:52:49;1.95;;;0.30;;
47365;SDS011;33105;47.964;7.982;2023-11-21T01:55:51;3.28;;;1.30;;
47365;SDS011;33105;47.964;7.982;2023-11-21T01:58:54;1.15;;;0.30;;
47365;SDS011;33105;47.964;7.982;2023-11-21T02:01:55;0.55;;;0.20;;
47365;SDS011;33105;47.964;7.982;2023-11-21T02:04:57;1.90;;;0.30;;
47365;SDS011;33105;47.964;7.982;2023-11-21T02:07:58;1.83;;;0.30;;
47365;SDS011;33105;47.964;7.982;2023-11-21T02:10:59;1.55;;;0.45;;
47365;SDS011;33105;47.964;7.982;2023-11-21T02:14:00;0.20;;;0.10;;
47365;SDS011;33105;47.964;7.982;2023-11-21T02:17:02;0.77;;;0.25;;
47365;SDS011;33105;47.964;7.982;2023-11-21T02:20:06;1.77;;;0.43;;
47365;SDS011;33105;47.964;7.982;2023-11-21T02:23:07;1.70;;;0.40;;
47365;SDS011;33105;47.964;7.982;2023-11-21T02:26:09;1.05;;;0.60;;
47365;SDS011;33105;47.964;7.982;2023-11-21T02:29:10;7.05;;;2.83;;
47365;SDS011;33105;47.964;7.982;2023-11-21T02:32:14;0.98;;;0.50;;
47365;SDS011;33105;47.964;7.982;2023-11-21T02:35:15;1.65;;;0.40;;
47365;SDS011;33105;47.964;7.982;2023-11-21T02:38:16;1.25;;;0.28;;
47365;SDS011;33105;47.964;7.982;2023-11-21T02:41:17;0.38;;;0.38;;
47365;SDS011;33105;47.964;7.982;2023-11-21T02:44:19;1.88;;;0.60;;
47365;SDS011;33105;47.964;7.982;2023-11-21T02:47:20;1.45;;;0.28;;
47365;SDS011;33105;47.964;7.982;2023-11-21T02:50:21;0.57;;;0.35;;
47365;SDS011;33105;47.964;7.982;2023-11-21T02:53:23;1.35;;;0.57;;
47365;SDS011;33105;47.964;7.982;2023-11-21T02:56:25;2.95;;;0.50;;
47365;SDS011;33105;47.964;7.982;2023-11-21T02:59:27;0.77;;;0.55;;
47365;SDS011;33105;47.964;7.982;2023-11-21T03:02:28;2.35;;;0.70;;
47365;SDS011;33105;47.964;7.982;2023-11-21T03:05:29;4.93;;;1.13;;
47365;SDS011;33105;47.964;7.982;2023-11-21T03:08:32;3.72;;;0.80;;
47365;SDS011;33105;47.964;7.982;2023-11-21T03:11:33;3.03;;;0.65;;
47365;SDS011;33105;47.964;7.982;2023-11-21T03:14:34;5.65;;;1.20;;
47365;SDS011;33105;47.964;7.982;2023-11-21T03:17:35;5.80;;;1.00;;
47365;SDS011;33105;47.964;7.982;2023-11-21T03:20:37;4.38;;;0.70;;
47365;SDS011;33105;47.964;7.982;2023-11-21T03:23:39;4.07;;;0.47;;
47365;SDS011;33105;47.964;7.982;2023-11-21T03:26:40;2.47;;;0.47;;
47365;SDS011;33105;47.964;7.982;2023-11-21T03:29:42;7.80;;;0.98;;
47365;SDS011;33105;47.964;7.982;2023-11-21T03:32:44;1.00;;;0.50;;
47365;SDS011;33105;47.964;7.982;2023-11-21T03:35:45;2.92;;;0.50;;
47365;SDS011;33105;47.964;7.982;2023-11-21T03:38:47;3.15;;;0.85;;
47365;SDS011;33105;47.964;7.982;2023-11-21T03:41:49;3.80;;;0.70;;
47365;SDS011;33105;47.964;7.982;2023-11-21T03:44:53;3.47;;;0.70;;
47365;SDS011;33105;47.964;7.982;2023-11-21T03:47:55;2.90;;;0.68;;
47365;SDS011;33105;47.964;7.982;2023-11-21T03:50:56;3.45;;;0.52;;
47365;SDS011;33105;47.964;7.982;2023-11-21T03:53:57;4.68;;;0.77;;
47365;SDS011;33105;47.964;7.982;2023-11-21T03:56:59;1.63;;;0.73;;
47365;SDS011;33105;47.964;7.982;2023-11-21T04:00:00;3.75;;;0.57;;
47365;SDS011;33105;47.964;7.982;2023-11-21T04:03:01;4.43;;;0.90;;
47365;SDS011;33105;47.964;7.982;2023-11-21T04:06:04;1.08;;;0.60;;
47365;SDS011;33105;47.964;7.982;2023-11-21T04:09:06;2.72;;;0.60;;
47365;SDS011;33105;47.964;7.982;2023-11-21T04:12:08;3.58;;;0.57;;
47365;SDS011;33105;47.964;7.982;2023-11-21T04:15:12;2.10;;;0.98;;
47365;SDS011;33105;47.964;7.982;2023-11-21T04:18:14;2.05;;;0.57;;
47365;SDS011;33105;47.964;7.982;2023-11-21T04:21:15;0.73;;;0.57;;
47365;SDS011;33105;47.964;7.982;2023-11-21T04:24:16;5.15;;;0.90;;
47365;SDS011;33105;47.964;7.982;2023-11-21T04:27:18;6.25;;;1.00;;
47365;SDS011;33105;47.964;7.982;2023-11-21T04:30:19;6.15;;;0.95;;
47365;SDS011;33105;47.964;7.982;2023-11-21T04:33:21;5.10;;;1.13;;
47365;SDS011;33105;47.964;7.982;2023-11-21T04:36:23;5.20;;;1.55;;
47365;SDS011;33105;47.964;7.982;2023-11-21T04:39:24;2.10;;;0.90;;
47365;SDS011;33105;47.964;7.982;2023-11-21T04:42:25;5.95;;;0.90;;
47365;SDS011;33105;47.964;7.982;2023-11-21T04:45:27;2.15;;;0.65;;
47365;SDS011;33105;47.964;7.982;2023-11-21T04:48:28;1.95;;;0.70;;
47365;SDS011;33105;47.964;7.982;2023-11-21T04:51:29;3.53;;;0.55;;
47365;SDS011;33105;47.964;7.982;2023-11-21T04:54:33;7.55;;;0.90;;
47365;SDS011;33105;47.964;7.982;2023-11-21T04:57:34;4.38;;;1.00;;
47365;SDS011;33105;47.964;7.982;2023-11-21T05:00:35;2.70;;;1.33;;
47365;SDS011;33105;47.964;7.982;2023-11-21T05:03:39;5.53;;;1.40;;
47365;SDS011;33105;47.964;7.982;2023-11-21T05:06:41;4.32;;;1.38;;
47365;SDS011;33105;47.964;7.982;2023-11-21T05:09:42;5.03;;;1.17;;
47365;SDS011;33105;47.964;7.982;2023-11-21T05:12:47;2.63;;;1.13;;
47365;SDS011;33105;47.964;7.982;2023-11-21T05:15:48;4.03;;;1.00;;
47365;SDS011;33105;47.964;7.982;2023-11-21T05:18:50;2.63;;;1.00;;
47365;SDS011;33105;47.964;7.982;2023-11-21T05:21:51;6.18;;;1.30;;
47365;SDS011;33105;47.964;7.982;2023-11-21T05:24:52;6.68;;;1.50;;
47365;SDS011;33105;47.964;7.982;2023-11-21T05:27:54;3.75;;;1.05;;
47365;SDS011;33105;47.964;7.982;2023-11-21T05:30:55;2.65;;;1.10;;
47365;SDS011;33105;47.964;7.982;2023-11-21T05:33:56;3.58;;;1.20;;
47365;SDS011;33105;47.964;7.982;2023-11-21T05:36:57;3.42;;;1.05;;
47365;SDS011;33105;47.964;7.982;2023-11-21T05:39:59;3.33;;;1.13;;
47365;SDS011;33105;47.964;7.982;2023-11-21T05:43:06;4.75;;;1.55;;
47365;SDS011;33105;47.964;7.982;2023-11-21T05:46:07;5.03;;;1.40;;
47365;SDS011;33105;47.964;7.982;2023-11-21T05:49:09;2.60;;;0.93;;
47365;SDS011;33105;47.964;7.982;2023-11-21T05:52:11;4.40;;;1.17;;
47365;SDS011;33105;47.964;7.982;2023-11-21T05:55:12;3.53;;;0.85;;
47365;SDS011;33105;47.964;7.982;2023-11-21T05:58:14;10.10;;;6.10;;
47365;SDS011;33105;47.964;7.982;2023-11-21T06:01:15;5.63;;;1.63;;
47365;SDS011;33105;47.964;7.982;2023-11-21T06:04:16;3.38;;;1.98;;
47365;SDS011;33105;47.964;7.982;2023-11-21T06:07:19;8.60;;;4.10;;
47365;SDS011;33105;47.964;7.982;2023-11-21T06:10:20;13.50;;;6.53;;
47365;SDS011;33105;47.964;7.982;2023-11-21T06:13:22;5.10;;;2.30;;
47365;SDS011;33105;47.964;7.982;2023-11-21T06:16:25;7.22;;;3.75;;
47365;SDS011;33105;47.964;7.982;2023-11-21T06:19:26;4.57;;;2.03;;
47365;SDS011;33105;47.964;7.982;2023-11-21T06:22:27;5.30;;;1.30;;
47365;SDS011;33105;47.964;7.982;2023-11-21T06:25:31;6.72;;;2.08;;
47365;SDS011;33105;47.964;7.982;2023-11-21T06:28:36;4.68;;;2.08;;
47365;SDS011;33105;47.964;7.982;2023-11-21T06:31:38;5.93;;;1.90;;
47365;SDS011;33105;47.964;7.982;2023-11-21T06:34:41;3.45;;;1.67;;
47365;SDS011;33105;47.964;7.982;2023-11-21T06:37:43;7.43;;;1.92;;
47365;SDS011;33105;47.964;7.982;2023-11-21T06:40:48;3.65;;;2.47;;
47365;SDS011;33105;47.964;7.982;2023-11-21T06:43:49;9.07;;;5.18;;
47365;SDS011;33105;47.964;7.982;2023-11-21T06:46:50;16.27;;;9.52;;
47365;SDS011;33105;47.964;7.982;2023-11-21T06:49:52;21.08;;;12.85;;
47365;SDS011;33105;47.964;7.982;2023-11-21T06:52:54;8.52;;;4.90;;
47365;SDS011;33105;47.964;7.982;2023-11-21T06:55:55;25.23;;;13.57;;
47365;SDS011;33105;47.964;7.982;2023-11-21T06:58:56;9.05;;;4.45;;
47365;SDS011;33105;47.964;7.982;2023-11-21T07:01:57;8.05;;;3.53;;
47365;SDS011;33105;47.964;7.982;2023-11-21T07:04:58;7.78;;;2.95;;
47365;SDS011;33105;47.964;7.982;2023-11-21T07:08:00;6.70;;;3.85;;
47365;SDS011;33105;47.964;7.982;2023-11-21T07:11:05;8.07;;;4.68;;
47365;SDS011;33105;47.964;7.982;2023-11-21T07:14:06;8.93;;;4.70;;
47365;SDS011;33105;47.964;7.982;2023-11-21T07:17:11;4.93;;;2.95;;
47365;SDS011;33105;47.964;7.982;2023-11-21T07:20:12;4.03;;;2.15;;
47365;SDS011;33105;47.964;7.982;2023-11-21T07:23:14;5.13;;;2.42;;
47365;SDS011;33105;47.964;7.982;2023-11-21T07:26:16;3.08;;;1.98;;
47365;SDS011;33105;47.964;7.982;2023-11-21T07:29:18;5.07;;;1.77;;
47365;SDS011;33105;47.964;7.982;2023-11-21T07:32:20;3.08;;;1.50;;
47365;SDS011;33105;47.964;7.982;2023-11-21T07:35:21;3.70;;;2.20;;
47365;SDS011;33105;47.964;7.982;2023-11-21T07:38:22;3.33;;;2.13;;
47365;SDS011;33105;47.964;7.982;2023-11-21T07:41:24;4.65;;;2.80;;
47365;SDS011;33105;47.964;7.982;2023-11-21T07:44:25;6.43;;;2.88;;
47365;SDS011;33105;47.964;7.982;2023-11-21T07:47:27;5.10;;;2.63;;
47365;SDS011;33105;47.964;7.982;2023-11-21T07:50:28;8.98;;;2.95;;
47365;SDS011;33105;47.964;7.982;2023-11-21T07:53:30;2.88;;;1.80;;
47365;SDS011;33105;47.964;7.982;2023-11-21T07:56:31;2.53;;;1.67;;
47365;SDS011;33105;47.964;7.982;2023-11-21T07:59:32;2.97;;;2.00;;
47365;SDS011;33105;47.964;7.982;2023-11-21T08:02:33;2.10;;;1.90;;
47365;SDS011;33105;47.964;7.982;2023-11-21T08:05:35;4.43;;;1.77;;
47365;SDS011;33105;47.964;7.982;2023-11-21T08:08:36;4.22;;;2.60;;
47365;SDS011;33105;47.964;7.982;2023-11-21T08:11:38;5.68;;;2.78;;
47365;SDS011;33105;47.964;7.982;2023-11-21T08:14:40;4.43;;;2.10;;
47365;SDS011;33105;47.964;7.982;2023-11-21T08:17:41;6.75;;;5.38;;
47365;SDS011;33105;47.964;7.982;2023-11-21T08:20:43;6.13;;;5.45;;
47365;SDS011;33105;47.964;7.982;2023-11-21T08:23:45;5.10;;;4.70;;
47365;SDS011;33105;47.964;7.982;2023-11-21T08:26:48;5.05;;;2.80;;
47365;SDS011;33105;47.964;7.982;2023-11-21T08:29:49;6.55;;;3.28;;
47365;SDS011;33105;47.964;7.982;2023-11-21T08:32:51;5.38;;;3.47;;
47365;SDS011;33105;47.964;7.982;2023-11-21T08:35:54;4.30;;;2.72;;
47365;SDS011;33105;47.964;7.982;2023-11-21T08:38:55;2.85;;;1.85;;
47365;SDS011;33105;47.964;7.982;2023-11-21T08:41:57;4.18;;;2.05;;
47365;SDS011;33105;47.964;7.982;2023-11-21T08:44:58;4.47;;;1.92;;
47365;SDS011;33105;47.964;7.982;2023-11-21T08:48:00;3.67;;;2.00;;
47365;SDS011;33105;47.964;7.982;2023-11-21T08:51:02;5.45;;;2.97;;
47365;SDS011;33105;47.964;7.982;2023-11-21T08:54:04;3.03;;;2.00;;
47365;SDS011;33105;47.964;7.982;2023-11-21T08:57:08;5.47;;;3.15;;
47365;SDS011;33105;47.964;7.982;2023-11-21T09:00:10;7.97;;;2.30;;
47365;SDS011;33105;47.964;7.982;2023-11-21T09:03:12;3.80;;;2.70;;
47365;SDS011;33105;47.964;7.982;2023-11-21T09:06:14;4.18;;;2.70;;
47365;SDS011;33105;47.964;7.982;2023-11-21T09:09:15;5.05;;;2.50;;
47365;SDS011;33105;47.964;7.982;2023-11-21T09:12:16;2.53;;;2.20;;
47365;SDS011;33105;47.964;7.982;2023-11-21T09:15:20;4.88;;;3.00;;
47365;SDS011;33105;47.964;7.982;2023-11-21T09:18:21;3.95;;;2.60;;
47365;SDS011;33105;47.964;7.982;2023-11-21T09:21:22;4.53;;;2.70;;
47365;SDS011;33105;47.964;7.982;2023-11-21T09:24:24;4.05;;;2.50;;
47365;SDS011;33105;47.964;7.982;2023-11-21T09:27:26;5.53;;;2.90;;
47365;SDS011;33105;47.964;7.982;2023-11-21T09:30:27;4.15;;;2.83;;
47365;SDS011;33105;47.964;7.982;2023-11-21T09:33:28;4.75;;;2.60;;
47365;SDS011;33105;47.964;7.982;2023-11-21T09:36:31;4.85;;;3.00;;
47365;SDS011;33105;47.964;7.982;2023-11-21T09:39:34;7.07;;;2.88;;
47365;SDS011;33105;47.964;7.982;2023-11-21T09:42:39;5.53;;;2.33;;
47365;SDS011;33105;47.964;7.982;2023-11-21T09:45:48;4.30;;;2.37;;
47365;SDS011;33105;47.964;7.982;2023-11-21T09:48:57;3.63;;;2.17;;
47365;SDS011;33105;47.964;7.982;2023-11-21T09:52:02;6.80;;;1.98;;
47365;SDS011;33105;47.964;7.982;2023-11-21T09:55:04;1.85;;;1.50;;
47365;SDS011;33105;47.964;7.982;2023-11-21T09:58:06;2.35;;;1.52;;
47365;SDS011;33105;47.964;7.982;2023-11-21T10:01:12;2.35;;;1.50;;
47365;SDS011;33105;47.964;7.982;2023-11-21T10:04:16;2.47;;;1.20;;
47365;SDS011;33105;47.964;7.982;2023-11-21T10:07:18;1.50;;;1.30;;
47365;SDS011;33105;47.964;7.982;2023-11-21T10:10:21;1.88;;;1.38;;
47365;SDS011;33105;47.964;7.982;2023-11-21T10:13:24;1.65;;;1.20;;
47365;SDS011;33105;47.964;7.982;2023-11-21T10:16:26;3.75;;;1.27;;
47365;SDS011;33105;47.964;7.982;2023-11-21T10:19:28;3.67;;;1.38;;
47365;SDS011;33105;47.964;7.982;2023-11-21T10:22:30;3.75;;;1.20;;
47365;SDS011;33105;47.964;7.982;2023-11-21T10:25:31;3.28;;;1.63;;
47365;SDS011;33105;47.964;7.982;2023-11-21T10:28:35;2.50;;;1.55;;
47365;SDS011;33105;47.964;7.982;2023-11-21T10:31:38;3.15;;;1.27;;
47365;SDS011;33105;47.964;7.982;2023-11-21T10:34:40;3.83;;;1.83;;
47365;SDS011;33105;47.964;7.982;2023-11-21T10:37:42;3.10;;;1.55;;
47365;SDS011;33105;47.964;7.982;2023-11-21T10:40:46;2.78;;;2.00;;
47365;SDS011;33105;47.964;7.982;2023-11-21T10:43:48;5.03;;;1.88;;
47365;SDS011;33105;47.964;7.982;2023-11-21T10:46:50;2.25;;;1.42;;
47365;SDS011;33105;47.964;7.982;2023-11-21T10:49:53;2.78;;;1.67;;
47365;SDS011;33105;47.964;7.982;2023-11-21T10:52:54;3.05;;;1.60;;
47365;SDS011;33105;47.964;7.982;2023-11-21T10:56:00;2.45;;;1.77;;
47365;SDS011;33105;47.964;7.982;2023-11-21T10:59:07;3.40;;;1.23;;
47365;SDS011;33105;47.964;7.982;2023-11-21T11:02:32;2.05;;;1.67;;
47365;SDS011;33105;47.964;7.982;2023-11-21T11:05:35;2.95;;;1.80;;
47365;SDS011;33105;47.964;7.982;2023-11-21T11:08:37;5.10;;;1.88;;
47365;SDS011;33105;47.964;7.982;2023-11-21T11:11:40;3.30;;;2.28;;
47365;SDS011;33105;47.964;7.982;2023-11-21T11:14:42;6.45;;;2.50;;
47365;SDS011;33105;47.964;7.982;2023-11-21T11:17:45;5.18;;;2.03;;
47365;SDS011;33105;47.964;7.982;2023-11-21T11:20:47;2.67;;;2.20;;
47365;SDS011;33105;47.964;7.982;2023-11-21T11:31:17;2.05;;;1.55;;
47365;SDS011;33105;47.964;7.982;2023-11-21T11:34:35;5.43;;;2.22;;
47365;SDS011;33105;47.964;7.982;2023-11-21T11:37:43;6.18;;;2.25;;
47365;SDS011;33105;47.964;7.982;2023-11-21T11:40:44;3.60;;;2.30;;
47365;SDS011;33105;47.964;7.982;2023-11-21T11:43:47;2.03;;;1.77;;
47365;SDS011;33105;47.964;7.982;2023-11-21T11:46:48;2.45;;;1.50;;
47365;SDS011;33105;47.964;7.982;2023-11-21T11:49:56;1.42;;;1.30;;
47365;SDS011;33105;47.964;7.982;2023-11-21T11:53:14;2.08;;;1.30;;
47365;SDS011;33105;47.964;7.982;2023-11-21T11:59:21;2.65;;;1.52;;
47365;SDS011;33105;47.964;7.982;2023-11-21T12:02:23;2.15;;;1.23;;
47365;SDS011;33105;47.964;7.982;2023-11-21T12:05:25;1.67;;;1.00;;
47365;SDS011;33105;47.964;7.982;2023-11-21T12:08:31;1.92;;;1.50;;
47365;SDS011;33105;47.964;7.982;2023-11-21T12:11:33;3.88;;;1.70;;
47365;SDS011;33105;47.964;7.982;2023-11-21T12:14:36;1.73;;;1.25;;
47365;SDS011;33105;47.964;7.982;2023-11-21T12:17:38;1.30;;;1.20;;
47365;SDS011;33105;47.964;7.982;2023-11-21T12:20:44;1.40;;;1.30;;
47365;SDS011;33105;47.964;7.982;2023-11-21T12:23:47;1.50;;;1.40;;
47365;SDS011;33105;47.964;7.982;2023-11-21T12:26:49;1.42;;;1.27;;
47365;SDS011;33105;47.964;7.982;2023-11-21T12:29:50;2.92;;;1.48;;
47365;SDS011;33105;47.964;7.982;2023-11-21T12:32:51;2.40;;;1.60;;
47365;SDS011;33105;47.964;7.982;2023-11-21T12:35:54;2.55;;;1.52;;
47365;SDS011;33105;47.964;7.982;2023-11-21T12:38:55;11.32;;;1.60;;
47365;SDS011;33105;47.964;7.982;2023-11-21T12:41:57;1.77;;;1.52;;
47365;SDS011;33105;47.964;7.982;2023-11-21T12:48:15;1.73;;;1.63;;
47365;SDS011;33105;47.964;7.982;2023-11-21T12:51:23;10.68;;;6.57;;
47365;SDS011;33105;47.964;7.982;2023-11-21T12:54:24;3.40;;;1.90;;
47365;SDS011;33105;47.964;7.982;2023-11-21T12:57:26;2.13;;;1.40;;
47365;SDS011;33105;47.964;7.982;2023-11-21T13:00:36;2.80;;;1.60;;
47365;SDS011;33105;47.964;7.982;2023-11-21T13:03:43;1.83;;;1.55;;
47365;SDS011;33105;47.964;7.982;2023-11-21T13:06:46;1.60;;;1.50;;
47365;SDS011;33105;47.964;7.982;2023-11-21T13:09:47;2.40;;;1.60;;
47365;SDS011;33105;47.964;7.982;2023-11-21T13:12:48;3.88;;;2.05;;
47365;SDS011;33105;47.964;7.982;2023-11-21T13:15:53;2.17;;;1.90;;
47365;SDS011;33105;47.964;7.982;2023-11-21T13:19:01;2.95;;;1.83;;
47365;SDS011;33105;47.964;7.982;2023-11-21T13:22:04;3.55;;;2.60;;
47365;SDS011;33105;47.964;7.982;2023-11-21T13:25:05;4.10;;;3.03;;
47365;SDS011;33105;47.964;7.982;2023-11-21T13:28:08;3.38;;;2.60;;
47365;SDS011;33105;47.964;7.982;2023-11-21T13:31:13;3.60;;;2.58;;
47365;SDS011;33105;47.964;7.982;2023-11-21T13:34:33;5.03;;;2.47;;
47365;SDS011;33105;47.964;7.982;2023-11-21T13:37:37;3.97;;;2.70;;
47365;SDS011;33105;47.964;7.982;2023-11-21T13:40:39;7.35;;;4.30;;
47365;SDS011;33105;47.964;7.982;2023-11-21T13:43:46;8.20;;;4.47;;
47365;SDS011;33105;47.964;7.982;2023-11-21T13:46:59;4.45;;;3.80;;
47365;SDS011;33105;47.964;7.982;2023-11-21T13:50:01;3.50;;;2.63;;
47365;SDS011;33105;47.964;7.982;2023-11-21T13:53:02;3.42;;;3.13;;
47365;SDS011;33105;47.964;7.982;2023-11-21T13:56:11;2.55;;;2.15;;
47365;SDS011;33105;47.964;7.982;2023-11-21T13:59:14;2.97;;;1.90;;
47365;SDS011;33105;47.964;7.982;2023-11-21T14:02:26;2.35;;;2.15;;
47365;SDS011;33105;47.964;7.982;2023-11-21T14:05:35;2.25;;;1.80;;
47365;SDS011;33105;47.964;7.982;2023-11-21T14:08:36;3.05;;;2.75;;
47365;SDS011;33105;47.964;7.982;2023-11-21T14:11:37;2.30;;;2.10;;
47365;SDS011;33105;47.964;7.982;2023-11-21T14:14:39;4.47;;;3.35;;
47365;SDS011;33105;47.964;7.982;2023-11-21T14:17:40;4.47;;;3.67;;
47365;SDS011;33105;47.964;7.982;2023-11-21T14:20:43;7.00;;;4.78;;
47365;SDS011;33105;47.964;7.982;2023-11-21T14:23:45;3.17;;;2.17;;
47365;SDS011;33105;47.964;7.982;2023-11-21T14:26:47;2.40;;;2.05;;
47365;SDS011;33105;47.964;7.982;2023-11-21T14:29:49;17.38;;;11.07;;
47365;SDS011;33105;47.964;7.982;2023-11-21T14:32:51;8.52;;;5.32;;
47365;SDS011;33105;47.964;7.982;2023-11-21T14:35:52;6.75;;;4.88;;
47365;SDS011;33105;47.964;7.982;2023-11-21T14:38:53;6.20;;;4.63;;
47365;SDS011;33105;47.964;7.982;2023-11-21T14:41:55;4.93;;;3.95;;
47365;SDS011;33105;47.964;7.982;2023-11-21T14:44:57;1.75;;;1.20;;
47365;SDS011;33105;47.964;7.982;2023-11-21T14:48:03;1.83;;;1.50;;
47365;SDS011;33105;47.964;7.982;2023-11-21T14:51:16;4.32;;;2.88;;
47365;SDS011;33105;47.964;7.982;2023-11-21T14:54:33;2.88;;;2.63;;
47365;SDS011;33105;47.964;7.982;2023-11-21T14:57:41;7.38;;;6.60;;
47365;SDS011;33105;47.964;7.982;2023-11-21T15:00:42;14.88;;;13.40;;
47365;SDS011;33105;47.964;7.982;2023-11-21T15:03:45;9.45;;;8.48;;
47365;SDS011;33105;47.964;7.982;2023-11-21T15:06:51;6.10;;;3.55;;
47365;SDS011;33105;47.964;7.982;2023-11-21T15:09:54;2.65;;;2.13;;
47365;SDS011;33105;47.964;7.982;2023-11-21T15:12:55;3.13;;;2.25;;
47365;SDS011;33105;47.964;7.982;2023-11-21T15:15:58;6.03;;;3.83;;
47365;SDS011;33105;47.964;7.982;2023-11-21T15:19:08;3.80;;;3.40;;
47365;SDS011;33105;47.964;7.982;2023-11-21T15:22:10;3.80;;;2.83;;
47365;SDS011;33105;47.964;7.982;2023-11-21T15:25:16;3.42;;;2.92;;
47365;SDS011;33105;47.964;7.982;2023-11-21T15:28:17;5.90;;;3.58;;
47365;SDS011;33105;47.964;7.982;2023-11-21T15:31:19;3.70;;;2.95;;
47365;SDS011;33105;47.964;7.982;2023-11-21T15:34:25;3.13;;;2.60;;
47365;SDS011;33105;47.964;7.982;2023-11-21T15:37:27;4.18;;;3.05;;
47365;SDS011;33105;47.964;7.982;2023-11-21T15:40:29;3.90;;;2.67;;
47365;SDS011;33105;47.964;7.982;2023-11-21T15:43:32;3.00;;;2.58;;
47365;SDS011;33105;47.964;7.982;2023-11-21T15:46:34;4.15;;;3.30;;
47365;SDS011;33105;47.964;7.982;2023-11-21T15:49:36;9.13;;;5.22;;
47365;SDS011;33105;47.964;7.982;2023-11-21T15:52:38;7.97;;;5.38;;
47365;SDS011;33105;47.964;7.982;2023-11-21T15:55:39;6.55;;;4.65;;
47365;SDS011;33105;47.964;7.982;2023-11-21T15:58:43;8.40;;;6.70;;
47365;SDS011;33105;47.964;7.982;2023-11-21T16:01:44;7.32;;;5.75;;
47365;SDS011;33105;47.964;7.982;2023-11-21T16:04:47;8.07;;;6.72;;
47365;SDS011;33105;47.964;7.982;2023-11-21T16:07:48;6.57;;;5.35;;
47365;SDS011;33105;47.964;7.982;2023-11-21T16:10:51;8.90;;;6.55;;
47365;SDS011;33105;47.964;7.982;2023-11-21T16:13:52;8.68;;;6.68;;
47365;SDS011;33105;47.964;7.982;2023-11-21T16:16:54;11.35;;;7.70;;
47365;SDS011;33105;47.964;7.982;2023-11-21T16:19:55;10.13;;;7.80;;
47365;SDS011;33105;47.964;7.982;2023-11-21T16:22:57;10.68;;;7.15;;
47365;SDS011;33105;47.964;7.982;2023-11-21T16:25:58;8.18;;;6.40;;
47365;SDS011;33105;47.964;7.982;2023-11-21T16:28:59;8.32;;;5.90;;
47365;SDS011;33105;47.964;7.982;2023-11-21T16:32:01;9.75;;;6.38;;
47365;SDS011;33105;47.964;7.982;2023-11-21T16:35:02;9.95;;;7.57;;
47365;SDS011;33105;47.964;7.982;2023-11-21T16:38:04;13.82;;;9.82;;
47365;SDS011;33105;47.964;7.982;2023-11-21T16:41:06;7.90;;;6.75;;
47365;SDS011;33105;47.964;7.982;2023-11-21T16:44:15;8.07;;;7.10;;
47365;SDS011;33105;47.964;7.982;2023-11-21T16:50:19;10.18;;;7.43;;
47365;SDS011;33105;47.964;7.982;2023-11-21T16:53:22;11.85;;;8.75;;
47365;SDS011;33105;47.964;7.982;2023-11-21T16:56:23;10.57;;;7.13;;
47365;SDS011;33105;47.964;7.982;2023-11-21T16:59:25;7.88;;;6.00;;
47365;SDS011;33105;47.964;7.982;2023-11-21T17:02:26;6.90;;;4.50;;
47365;SDS011;33105;47.964;7.982;2023-11-21T17:05:27;8.52;;;6.75;;
47365;SDS011;33105;47.964;7.982;2023-11-21T17:08:28;5.40;;;4.82;;
47365;SDS011;33105;47.964;7.982;2023-11-21T17:11:30;5.28;;;4.32;;
47365;SDS011;33105;47.964;7.982;2023-11-21T17:14:32;5.05;;;4.25;;
47365;SDS011;33105;47.964;7.982;2023-11-21T17:17:34;8.32;;;4.97;;
47365;SDS011;33105;47.964;7.982;2023-11-21T17:20:36;7.85;;;4.30;;
47365;SDS011;33105;47.964;7.982;2023-11-21T17:23:37;17.13;;;13.43;;
47365;SDS011;33105;47.964;7.982;2023-11-21T17:26:42;12.85;;;6.43;;
47365;SDS011;33105;47.964;7.982;2023-11-21T17:29:44;9.55;;;7.45;;
47365;SDS011;33105;47.964;7.982;2023-11-21T17:32:46;14.95;;;9.25;;
47365;SDS011;33105;47.964;7.982;2023-11-21T17:35:47;12.30;;;8.00;;
47365;SDS011;33105;47.964;7.982;2023-11-21T17:38:50;13.35;;;9.25;;
47365;SDS011;33105;47.964;7.982;2023-11-21T17:41:51;14.35;;;10.18;;
47365;SDS011;33105;47.964;7.982;2023-11-21T17:44:53;16.38;;;11.45;;
47365;SDS011;33105;47.964;7.982;2023-11-21T17:47:54;25.88;;;14.20;;
47365;SDS011;33105;47.964;7.982;2023-11-21T17:50:55;19.05;;;13.90;;
47365;SDS011;33105;47.964;7.982;2023-11-21T17:53:56;15.98;;;12.57;;
47365;SDS011;33105;47.964;7.982;2023-11-21T17:57:02;21.00;;;15.98;;
47365;SDS011;33105;47.964;7.982;2023-11-21T18:00:03;21.08;;;15.73;;
47365;SDS011;33105;47.964;7.982;2023-11-21T18:03:09;24.60;;;17.08;;
47365;SDS011;33105;47.964;7.982;2023-11-21T18:06:10;22.48;;;14.45;;
47365;SDS011;33105;47.964;7.982;2023-11-21T18:09:13;18.75;;;13.70;;
47365;SDS011;33105;47.964;7.982;2023-11-21T18:12:17;24.95;;;18.65;;
47365;SDS011;33105;47.964;7.982;2023-11-21T18:15:20;21.75;;;15.77;;
47365;SDS011;33105;47.964;7.982;2023-11-21T18:18:21;26.35;;;18.92;;
47365;SDS011;33105;47.964;7.982;2023-11-21T18:21:23;20.90;;;14.85;;
47365;SDS011;33105;47.964;7.982;2023-11-21T18:24:24;27.77;;;19.30;;
47365;SDS011;33105;47.964;7.982;2023-11-21T18:27:26;25.67;;;17.05;;
47365;SDS011;33105;47.964;7.982;2023-11-21T18:30:30;27.42;;;19.13;;
47365;SDS011;33105;47.964;7.982;2023-11-21T18:33:31;31.15;;;21.48;;